createdAt,value
2022-10-07T00:00:17.180Z,27.64
2022-10-07T00:02:46.074Z,27.63
2022-10-07T00:05:15.309Z,27.57
2022-10-07T00:07:44.695Z,27.47
2022-10-07T00:10:14.200Z,27.57
2022-10-07T00:12:43.470Z,27.55
2022-10-07T00:15:13.330Z,27.63
2022-10-07T00:17:42.697Z,27.56
2022-10-07T00:20:14.454Z,27.60
2022-10-07T00:22:44.690Z,27.61
2022-10-07T00:25:13.742Z,27.54
2022-10-07T00:27:43.682Z,27.42
2022-10-07T00:30:13.336Z,27.44
2022-10-07T00:32:45.047Z,27.48
2022-10-07T00:35:17.020Z,27.37
2022-10-07T00:37:46.573Z,27.28
2022-10-07T00:40:16.062Z,27.36
2022-10-07T00:42:45.427Z,27.46
2022-10-07T00:45:20.383Z,27.46
2022-10-07T00:47:52.656Z,27.53
2022-10-07T00:50:30.459Z,27.72
2022-10-07T00:53:03.087Z,27.53
2022-10-07T00:55:34.246Z,27.49
2022-10-07T00:58:08.929Z,27.52
2022-10-07T01:00:40.620Z,27.49
2022-10-07T01:03:11.448Z,27.75
2022-10-07T01:05:42.786Z,27.52
2022-10-07T01:08:15.169Z,27.41
2022-10-07T01:11:04.722Z,27.67
2022-10-07T01:13:44.500Z,27.60
2022-10-07T01:16:14.986Z,27.40
2022-10-07T01:18:55.763Z,27.58
2022-10-07T01:21:43.647Z,27.70
2022-10-07T01:24:36.436Z,27.69
2022-10-07T01:27:26.019Z,27.71
2022-10-07T01:30:04.627Z,27.75
2022-10-07T01:32:38.394Z,27.70
2022-10-07T01:35:17.134Z,27.80
2022-10-07T01:37:53.581Z,27.88
2022-10-07T01:40:31.823Z,27.91
2022-10-07T01:43:03.265Z,27.50
2022-10-07T01:45:34.084Z,27.88
2022-10-07T01:48:05.442Z,27.97
2022-10-07T01:50:37.505Z,28.00
2022-10-07T01:53:25.322Z,28.16
2022-10-07T01:56:18.317Z,28.20
2022-10-07T01:59:22.339Z,28.31
2022-10-07T02:02:17.845Z,28.01
2022-10-07T02:05:15.123Z,28.24
2022-10-07T02:07:55.284Z,28.15
2022-10-07T02:10:48.296Z,28.34
2022-10-07T02:13:32.976Z,28.21
2022-10-07T02:16:12.449Z,28.05
2022-10-07T02:18:51.611Z,28.09
2022-10-07T02:21:26.881Z,28.05
2022-10-07T02:23:58.439Z,28.05
2022-10-07T02:26:30.474Z,28.14
2022-10-07T02:29:03.871Z,28.08
2022-10-07T02:31:37.159Z,27.85
2022-10-07T02:34:08.642Z,28.19
2022-10-07T02:36:48.069Z,28.02
2022-10-07T02:39:18.159Z,28.14
2022-10-07T02:42:05.069Z,28.35
2022-10-07T02:44:47.785Z,28.46
2022-10-07T02:47:21.789Z,28.31
2022-10-07T02:49:58.527Z,28.25
2022-10-07T02:52:32.641Z,28.02
2022-10-07T02:55:09.279Z,28.34
2022-10-07T02:57:44.153Z,28.52
2022-10-07T03:00:15.984Z,28.50
2022-10-07T03:03:06.424Z,28.35
2022-10-07T03:05:49.452Z,28.36
2022-10-07T03:08:22.444Z,28.48
2022-10-07T03:10:52.726Z,28.51
2022-10-07T03:13:22.317Z,28.67
2022-10-07T03:15:55.987Z,28.94
2022-10-07T03:18:29.679Z,28.63
2022-10-07T03:21:21.983Z,28.60
2022-10-07T03:23:55.404Z,29.17
2022-10-07T03:26:30.600Z,29.15
2022-10-07T03:29:01.816Z,28.92
2022-10-07T03:31:32.359Z,29.14
2022-10-07T03:34:03.646Z,29.16
2022-10-07T03:36:34.128Z,29.28
2022-10-07T03:39:05.264Z,29.31
2022-10-07T03:41:35.968Z,29.45
2022-10-07T03:44:05.764Z,29.40
2022-10-07T03:46:36.376Z,29.44
2022-10-07T03:49:06.552Z,29.42
2022-10-07T03:51:37.428Z,29.57
2022-10-07T03:54:09.607Z,29.96
2022-10-07T03:56:40.734Z,29.82
2022-10-07T03:59:11.253Z,30.01
2022-10-07T04:01:42.044Z,30.00
2022-10-07T04:04:11.998Z,29.93
2022-10-07T04:06:44.567Z,30.02
2022-10-07T04:09:16.926Z,29.90
2022-10-07T04:11:46.942Z,30.18
2022-10-07T04:14:18.230Z,30.31
2022-10-07T04:16:48.014Z,30.29
2022-10-07T04:19:18.336Z,30.30
2022-10-07T04:21:48.226Z,30.14
2022-10-07T04:24:18.262Z,30.13
2022-10-07T04:26:48.008Z,30.16
2022-10-07T04:29:17.984Z,30.01
2022-10-07T04:31:49.164Z,30.04
2022-10-07T04:34:20.009Z,30.14
2022-10-07T04:36:50.230Z,29.99
2022-10-07T04:39:19.914Z,30.02
2022-10-07T04:41:58.841Z,29.83
2022-10-07T04:44:33.507Z,29.95
2022-10-07T04:47:09.837Z,30.16
2022-10-07T04:49:41.116Z,30.57
2022-10-07T04:52:12.593Z,30.14
2022-10-07T04:54:44.439Z,30.73
2022-10-07T04:57:17.560Z,30.45
2022-10-07T04:59:50.009Z,30.60
2022-10-07T05:02:24.062Z,30.83
2022-10-07T05:04:54.187Z,30.82
2022-10-07T05:07:24.074Z,30.62
2022-10-07T05:09:53.869Z,31.07
2022-10-07T05:12:23.985Z,31.00
2022-10-07T05:14:53.639Z,31.12
2022-10-07T05:17:24.730Z,31.04
2022-10-07T05:19:54.561Z,30.91
2022-10-07T05:22:24.204Z,31.23
2022-10-07T05:24:57.659Z,31.04
2022-10-07T05:27:30.273Z,31.31
2022-10-07T05:30:01.899Z,31.37
2022-10-07T05:32:34.188Z,31.23
2022-10-07T05:35:04.827Z,31.21
2022-10-07T05:37:35.729Z,31.08
2022-10-07T05:40:07.202Z,31.32
2022-10-07T05:45:29.109Z,31.50
2022-10-07T05:48:00.456Z,31.64
2022-10-07T05:50:30.600Z,31.53
2022-10-07T05:53:00.833Z,31.49
2022-10-07T05:55:35.666Z,31.28
2022-10-07T05:58:08.267Z,31.31
2022-10-07T06:00:42.931Z,31.60
2022-10-07T06:03:13.224Z,31.59
2022-10-07T06:05:48.175Z,31.85
2022-10-07T06:08:23.538Z,32.13
2022-10-07T06:11:19.680Z,32.07
2022-10-07T06:13:52.064Z,32.06
2022-10-07T06:16:23.238Z,32.33
2022-10-07T06:18:56.239Z,32.75
2022-10-07T06:21:29.456Z,32.52
2022-10-07T06:24:04.032Z,32.42
2022-10-07T06:26:36.850Z,31.76
2022-10-07T06:29:06.800Z,32.40
2022-10-07T06:31:37.371Z,32.21
2022-10-07T06:34:08.435Z,32.18
2022-10-07T06:36:39.996Z,32.55
2022-10-07T06:39:10.082Z,32.54
2022-10-07T06:41:43.268Z,32.62
2022-10-07T06:44:35.703Z,32.70
2022-10-07T06:47:11.431Z,32.91
2022-10-07T06:49:44.806Z,32.97
2022-10-07T06:52:15.406Z,32.95
2022-10-07T06:54:46.231Z,33.13
2022-10-07T06:57:43.863Z,33.25
2022-10-07T07:00:06.343Z,33.23
2022-10-07T07:02:38.136Z,33.32
2022-10-07T07:05:09.606Z,33.17
2022-10-07T07:07:39.769Z,33.10
2022-10-07T07:10:10.612Z,32.84
2022-10-07T07:12:43.500Z,32.84
2022-10-07T07:15:13.363Z,32.66
2022-10-07T07:17:42.890Z,32.84
2022-10-07T07:20:14.769Z,32.98
2022-10-07T07:22:44.431Z,33.03
2022-10-07T07:25:13.629Z,32.90
2022-10-07T07:27:43.438Z,32.92
2022-10-07T07:30:14.689Z,33.00
2022-10-07T07:32:46.857Z,33.06
2022-10-07T07:35:16.048Z,32.96
2022-10-07T07:37:49.250Z,32.96
2022-10-07T07:40:21.149Z,32.61
2022-10-07T07:42:51.330Z,32.93
2022-10-07T07:45:20.930Z,32.98
2022-10-07T07:47:51.155Z,32.97
2022-10-07T07:50:23.385Z,33.05
2022-10-07T07:52:57.177Z,33.02
2022-10-07T07:55:27.524Z,32.95
2022-10-07T07:58:01.112Z,32.82
2022-10-07T08:00:40.771Z,33.20
2022-10-07T08:03:10.763Z,33.27
2022-10-07T08:05:39.585Z,33.20
2022-10-07T08:08:08.852Z,33.26
2022-10-07T08:10:40.960Z,33.36
2022-10-07T08:13:13.844Z,33.43
2022-10-07T08:15:43.119Z,33.41
2022-10-07T08:18:14.352Z,33.38
2022-10-07T08:20:44.068Z,33.49
2022-10-07T08:23:13.322Z,33.56
2022-10-07T08:25:42.629Z,33.45
2022-10-07T08:28:11.880Z,33.63
2022-10-07T08:30:40.992Z,33.57
2022-10-07T08:33:10.011Z,33.56
2022-10-07T08:35:39.272Z,33.41
2022-10-07T08:38:11.395Z,33.74
2022-10-07T08:40:50.900Z,33.86
2022-10-07T08:43:24.750Z,33.72
2022-10-07T08:46:05.640Z,33.69
2022-10-07T08:48:39.845Z,33.83
2022-10-07T08:51:22.732Z,33.84
2022-10-07T08:53:55.999Z,33.77
2022-10-07T08:56:26.956Z,33.74
2022-10-07T08:59:11.002Z,33.82
2022-10-07T09:01:50.742Z,33.82
2022-10-07T09:05:01.680Z,33.74
2022-10-07T09:07:48.948Z,33.66
2022-10-07T09:10:32.259Z,33.67
2022-10-07T09:13:33.620Z,33.80
2022-10-07T09:16:17.411Z,33.75
2022-10-07T09:18:54.374Z,33.67
2022-10-07T09:21:33.239Z,33.58
2022-10-07T09:24:17.403Z,33.59
2022-10-07T09:26:47.659Z,33.50
2022-10-07T09:29:26.000Z,33.57
2022-10-07T09:32:07.065Z,33.24
2022-10-07T09:34:46.253Z,33.34
2022-10-07T09:37:28.868Z,33.38
2022-10-07T09:40:23.840Z,33.56
2022-10-07T09:42:52.998Z,33.22
2022-10-07T09:45:32.519Z,33.59
2022-10-07T09:48:08.664Z,33.50
2022-10-07T09:50:44.413Z,33.47
2022-10-07T09:53:33.004Z,33.69
2022-10-07T09:56:02.461Z,33.49
2022-10-07T09:58:33.501Z,33.44
2022-10-07T10:01:04.028Z,33.50
2022-10-07T10:03:35.533Z,33.34
2022-10-07T10:06:06.799Z,33.30
2022-10-07T10:08:41.968Z,33.38
2022-10-07T10:11:20.185Z,33.37
2022-10-07T10:13:52.074Z,33.27
2022-10-07T10:16:27.488Z,33.34
2022-10-07T10:19:05.785Z,33.08
2022-10-07T10:21:42.780Z,33.00
2022-10-07T10:24:40.892Z,33.25
2022-10-07T10:27:29.482Z,33.39
2022-10-07T10:30:11.287Z,33.43
2022-10-07T10:33:05.519Z,33.39
2022-10-07T10:36:01.454Z,33.33
2022-10-07T10:38:48.685Z,33.30
2022-10-07T10:41:29.855Z,33.37
2022-10-07T10:44:08.116Z,33.16
2022-10-07T10:46:58.873Z,33.30
2022-10-07T10:49:36.073Z,33.19
2022-10-07T10:52:19.129Z,33.13
2022-10-07T10:55:37.805Z,33.22
2022-10-07T10:58:27.051Z,33.11
2022-10-07T11:01:22.191Z,33.17
2022-10-07T11:04:00.368Z,33.22
2022-10-07T11:06:34.282Z,32.99
2022-10-07T11:09:05.176Z,32.96
2022-10-07T11:11:36.603Z,32.97
2022-10-07T11:14:22.019Z,33.00
2022-10-07T11:16:59.990Z,32.85
2022-10-07T11:19:39.676Z,32.75
2022-10-07T11:22:18.961Z,32.78
2022-10-07T11:24:56.158Z,32.58
2022-10-07T11:27:31.192Z,32.58
2022-10-07T11:30:21.016Z,32.55
2022-10-07T11:33:16.294Z,32.45
2022-10-07T11:35:53.077Z,32.52
2022-10-07T11:38:31.136Z,32.45
2022-10-07T11:41:17.831Z,32.35
2022-10-07T11:43:55.000Z,32.33
2022-10-07T11:46:37.265Z,32.37
2022-10-07T11:49:30.183Z,32.36
2022-10-07T11:52:05.357Z,32.30
2022-10-07T11:54:52.186Z,32.34
2022-10-07T11:57:25.841Z,32.22
2022-10-07T12:00:09.244Z,32.31
2022-10-07T12:02:46.798Z,32.21
2022-10-07T12:05:51.417Z,32.24
2022-10-07T12:08:34.168Z,32.19
2022-10-07T12:11:38.489Z,32.18
2022-10-07T12:14:34.195Z,32.09
2022-10-07T12:17:20.328Z,32.03
2022-10-07T12:20:28.084Z,31.95
2022-10-07T12:23:23.152Z,31.99
2022-10-07T12:26:04.251Z,31.80
2022-10-07T12:28:43.368Z,31.85
2022-10-07T12:31:19.676Z,31.79
2022-10-07T12:33:48.863Z,31.59
2022-10-07T12:36:23.290Z,31.77
2022-10-07T12:38:59.539Z,31.63
2022-10-07T12:41:40.616Z,31.56
2022-10-07T12:44:16.282Z,31.60
2022-10-07T12:46:54.016Z,31.55
2022-10-07T12:49:43.699Z,31.56
2022-10-07T12:52:17.126Z,31.39
2022-10-07T12:55:01.374Z,31.40
2022-10-07T12:57:39.790Z,31.39
2022-10-07T13:00:38.496Z,31.35
2022-10-07T13:03:47.921Z,31.40
2022-10-07T13:06:33.057Z,31.14
2022-10-07T13:09:37.649Z,31.23
2022-10-07T13:12:24.871Z,31.28
2022-10-07T13:15:18.052Z,31.20
2022-10-07T13:18:16.478Z,31.13
2022-10-07T13:20:45.471Z,30.99
2022-10-07T13:23:24.617Z,30.97
2022-10-07T13:25:58.807Z,31.04
2022-10-07T13:28:53.049Z,31.24
2022-10-07T13:31:28.091Z,31.06
2022-10-07T13:34:00.039Z,30.86
2022-10-07T13:36:31.338Z,30.87
2022-10-07T13:39:19.926Z,30.96
2022-10-07T13:41:52.065Z,30.83
2022-10-07T13:44:22.346Z,30.71
2022-10-07T13:46:54.733Z,30.71
2022-10-07T13:49:28.830Z,30.63
2022-10-07T13:52:02.742Z,30.60
2022-10-07T13:54:35.263Z,30.56
2022-10-07T13:57:07.736Z,30.57
2022-10-07T13:59:40.052Z,30.57
2022-10-07T14:02:16.353Z,30.56
2022-10-07T14:05:32.342Z,30.51
2022-10-07T14:08:15.976Z,30.32
2022-10-07T14:11:21.233Z,30.41
2022-10-07T14:13:50.548Z,30.30
2022-10-07T14:16:25.474Z,30.45
2022-10-07T14:18:54.620Z,30.27
2022-10-07T14:21:23.608Z,30.31
2022-10-07T14:23:52.755Z,30.30
2022-10-07T14:26:22.139Z,30.13
2022-10-07T14:28:51.150Z,30.11
2022-10-07T14:31:40.666Z,30.13
2022-10-07T14:34:40.569Z,30.18
2022-10-07T14:37:19.698Z,30.05
2022-10-07T14:39:51.052Z,30.02
2022-10-07T14:42:33.278Z,29.97
2022-10-07T14:45:05.655Z,30.03
2022-10-07T14:47:39.381Z,29.97
2022-10-07T14:50:08.783Z,30.01
2022-10-07T14:52:50.394Z,30.22
2022-10-07T14:55:26.750Z,30.15
2022-10-07T14:57:56.212Z,29.91
2022-10-07T15:00:28.609Z,30.04
2022-10-07T15:02:57.867Z,29.95
2022-10-07T15:05:27.746Z,29.87
2022-10-07T15:07:56.874Z,29.84
2022-10-07T15:10:27.721Z,29.96
2022-10-07T15:13:00.467Z,29.90
2022-10-07T15:15:29.595Z,30.00
2022-10-07T15:17:58.442Z,29.99
2022-10-07T15:20:28.467Z,29.81
2022-10-07T15:22:58.121Z,29.80
2022-10-07T15:25:27.211Z,29.82
2022-10-07T15:27:56.536Z,29.69
2022-10-07T15:30:26.838Z,29.69
2022-10-07T15:32:59.947Z,29.81
2022-10-07T15:35:29.221Z,29.69
2022-10-07T15:37:58.182Z,29.75
2022-10-07T15:40:27.538Z,29.69
2022-10-07T15:42:58.656Z,29.75
2022-10-07T15:45:28.399Z,29.73
2022-10-07T15:48:00.521Z,29.63
2022-10-07T15:50:30.025Z,29.73
2022-10-07T15:52:58.885Z,29.77
2022-10-07T15:55:28.155Z,29.72
2022-10-07T15:57:57.798Z,29.70
2022-10-07T16:00:26.806Z,29.74
2022-10-07T16:03:00.481Z,29.76
2022-10-07T16:05:32.244Z,29.58
2022-10-07T16:08:03.815Z,29.43
2022-10-07T16:10:38.272Z,29.59
2022-10-07T16:13:07.275Z,29.59
2022-10-07T16:15:37.734Z,29.62
2022-10-07T16:18:07.570Z,29.59
2022-10-07T16:20:45.188Z,29.57
2022-10-07T16:23:14.448Z,29.51
2022-10-07T16:25:43.215Z,29.48
2022-10-07T16:28:30.327Z,29.39
2022-10-07T16:30:59.566Z,29.39
2022-10-07T16:33:28.411Z,29.49
2022-10-07T16:35:57.451Z,29.47
2022-10-07T16:38:26.253Z,29.33
2022-10-07T16:40:55.992Z,29.41
2022-10-07T16:43:24.973Z,29.37
2022-10-07T16:45:54.008Z,29.35
2022-10-07T16:48:22.970Z,29.23
2022-10-07T16:50:51.967Z,29.25
2022-10-07T16:53:20.843Z,29.33
2022-10-07T16:55:49.721Z,29.31
2022-10-07T16:58:18.541Z,29.29
2022-10-07T17:00:50.872Z,29.34
2022-10-07T17:03:23.467Z,29.48
2022-10-07T17:05:59.943Z,29.52
2022-10-07T17:08:37.716Z,29.30
2022-10-07T17:11:10.916Z,29.27
2022-10-07T17:13:40.597Z,29.35
2022-10-07T17:16:10.136Z,29.23
2022-10-07T17:18:39.296Z,29.25
2022-10-07T17:21:08.179Z,29.27
2022-10-07T17:23:37.321Z,29.19
2022-10-07T17:26:10.005Z,29.33
2022-10-07T17:28:39.072Z,29.24
2022-10-07T17:31:10.282Z,29.36
2022-10-07T17:33:44.067Z,29.42
2022-10-07T17:36:14.327Z,29.20
2022-10-07T17:38:45.678Z,29.25
2022-10-07T17:41:26.879Z,29.21
2022-10-07T17:43:58.634Z,29.13
2022-10-07T17:46:30.815Z,29.32
2022-10-07T17:49:00.356Z,29.36
2022-10-07T17:51:32.098Z,29.22
2022-10-07T17:54:02.989Z,29.18
2022-10-07T17:56:33.288Z,29.25
2022-10-07T17:59:03.641Z,29.17
2022-10-07T18:01:34.901Z,29.21
2022-10-07T18:04:07.194Z,29.17
2022-10-07T18:06:38.397Z,29.17
2022-10-07T18:09:09.331Z,29.16
2022-10-07T18:11:56.724Z,29.06
2022-10-07T18:14:43.838Z,28.99
2022-10-07T18:17:13.102Z,29.00
2022-10-07T18:19:42.310Z,28.94
2022-10-07T18:22:11.756Z,28.91
2022-10-07T18:24:40.790Z,28.92
2022-10-07T18:27:10.100Z,28.82
2022-10-07T18:29:41.477Z,28.84
2022-10-07T18:32:10.651Z,28.85
2022-10-07T18:34:39.544Z,28.84
2022-10-07T18:37:08.764Z,28.85
2022-10-07T18:39:37.883Z,28.78
2022-10-07T18:42:06.871Z,28.80
2022-10-07T18:44:37.085Z,28.78
2022-10-07T18:47:06.270Z,28.77
2022-10-07T18:49:35.894Z,28.87
2022-10-07T18:52:08.360Z,28.85
2022-10-07T18:54:38.874Z,28.75
2022-10-07T18:57:07.863Z,28.70
2022-10-07T18:59:36.660Z,28.74
2022-10-07T19:02:05.947Z,28.70
2022-10-07T19:04:35.033Z,28.58
2022-10-07T19:07:06.087Z,28.65
2022-10-07T19:09:35.306Z,28.63
2022-10-07T19:12:04.207Z,28.76
2022-10-07T19:14:35.439Z,28.71
2022-10-07T19:17:04.373Z,28.69
2022-10-07T19:19:35.170Z,28.59
2022-10-07T19:22:05.184Z,28.55
2022-10-07T19:24:53.378Z,28.57
2022-10-07T19:27:22.946Z,28.58
2022-10-07T19:29:52.320Z,28.53
2022-10-07T19:32:22.174Z,28.46
2022-10-07T19:34:52.730Z,28.51
2022-10-07T19:37:21.768Z,28.52
2022-10-07T19:39:51.052Z,28.52
2022-10-07T19:42:20.286Z,28.41
2022-10-07T19:44:49.587Z,28.47
2022-10-07T19:47:19.273Z,28.45
2022-10-07T19:49:50.260Z,28.43
2022-10-07T19:52:19.807Z,28.21
2022-10-07T19:54:50.758Z,28.33
2022-10-07T19:57:19.915Z,28.24
2022-10-07T19:59:48.975Z,28.22
2022-10-07T20:02:18.603Z,28.24
2022-10-07T20:04:48.311Z,28.20
2022-10-07T20:07:22.142Z,28.27
2022-10-07T20:09:51.255Z,28.21
2022-10-07T20:12:20.438Z,28.14
2022-10-07T20:14:49.536Z,28.10
2022-10-07T20:17:19.276Z,28.18
2022-10-07T20:19:48.490Z,28.08
2022-10-07T20:22:17.653Z,28.07
2022-10-07T20:24:46.870Z,28.09
2022-10-07T20:27:15.661Z,28.02
2022-10-07T20:29:59.324Z,28.05
2022-10-07T20:32:30.542Z,28.07
2022-10-07T20:34:59.960Z,28.00
2022-10-07T20:37:29.079Z,28.03
2022-10-07T20:40:16.245Z,28.09
2022-10-07T20:42:47.078Z,27.99
2022-10-07T20:45:16.540Z,28.07
2022-10-07T20:47:46.170Z,28.01
2022-10-07T20:50:15.212Z,28.03
2022-10-07T20:52:46.224Z,28.02
2022-10-07T20:55:15.593Z,28.00
2022-10-07T20:57:44.329Z,28.08
2022-10-07T21:00:17.801Z,27.97
2022-10-07T21:02:47.198Z,27.96
2022-10-07T21:05:16.250Z,27.96
2022-10-07T21:07:45.548Z,28.02
2022-10-07T21:10:14.616Z,27.96
2022-10-07T21:12:45.681Z,28.01
2022-10-07T21:15:14.828Z,27.83
2022-10-07T21:17:45.911Z,27.86
2022-10-07T21:20:15.096Z,27.75
2022-10-07T21:22:44.540Z,27.79
2022-10-07T21:25:14.139Z,27.86
2022-10-07T21:27:43.519Z,27.68
2022-10-07T21:30:13.345Z,27.73
2022-10-07T21:32:42.379Z,27.79
2022-10-07T21:35:12.444Z,27.84
2022-10-07T21:37:41.358Z,27.65
2022-10-07T21:40:11.077Z,27.67
2022-10-07T21:42:40.132Z,27.66
2022-10-07T21:45:10.242Z,27.68
2022-10-07T21:47:39.322Z,27.65
2022-10-07T21:50:09.591Z,27.68
2022-10-07T21:52:43.141Z,27.76
2022-10-07T21:55:12.287Z,27.65
2022-10-07T21:57:43.707Z,27.56
2022-10-07T22:00:13.508Z,27.54
2022-10-07T22:02:43.037Z,27.58
2022-10-07T22:05:15.556Z,27.64
2022-10-07T22:08:03.102Z,27.63
2022-10-07T22:10:32.698Z,27.61
2022-10-07T22:13:02.417Z,27.64
2022-10-07T22:15:32.378Z,27.55
2022-10-07T22:18:01.830Z,27.61
2022-10-07T22:20:31.761Z,27.62
2022-10-07T22:23:01.754Z,27.62
2022-10-07T22:25:31.932Z,27.63
2022-10-07T22:28:00.932Z,27.55
2022-10-07T22:30:30.093Z,27.47
2022-10-07T22:32:59.267Z,27.50
2022-10-07T22:35:33.911Z,27.49
2022-10-07T22:38:03.171Z,27.46
2022-10-07T22:40:32.077Z,27.47
2022-10-07T22:43:01.195Z,27.49
2022-10-07T22:45:30.263Z,27.50
2022-10-07T22:47:59.891Z,27.55
2022-10-07T22:50:28.826Z,27.51
2022-10-07T22:52:57.827Z,27.54
2022-10-07T22:55:27.995Z,27.59
2022-10-07T22:57:57.480Z,27.55
2022-10-07T23:00:26.340Z,27.47
2022-10-07T23:02:55.959Z,27.45
2022-10-07T23:05:25.417Z,27.46
2022-10-07T23:07:54.432Z,27.44
2022-10-07T23:10:24.203Z,27.49
2022-10-07T23:12:53.188Z,27.48
2022-10-07T23:15:22.053Z,27.44
2022-10-07T23:17:51.202Z,27.46
2022-10-07T23:20:20.266Z,27.49
2022-10-07T23:22:49.776Z,27.50
2022-10-07T23:25:18.574Z,27.46
2022-10-07T23:27:47.913Z,27.47
2022-10-07T23:30:16.748Z,27.52
2022-10-07T23:32:48.888Z,27.59
2022-10-07T23:35:18.392Z,27.52
2022-10-07T23:37:47.122Z,27.58
2022-10-07T23:40:16.266Z,27.64
2022-10-07T23:42:45.211Z,27.72
2022-10-07T23:45:15.481Z,27.73
2022-10-07T23:47:45.975Z,27.81
2022-10-07T23:50:15.357Z,27.78
2022-10-07T23:52:44.327Z,27.78
2022-10-07T23:55:14.064Z,27.72
2022-10-07T23:57:42.955Z,27.57
